sensor_id;sensor_type;location;lat;lon;timestamp;temperature;humidity
54168;DHT22;68429;50.958;3.592;2023-11-18T00:00:49;7.30;99.90
54168;DHT22;68429;50.958;3.592;2023-11-18T00:03:14;7.30;99.90
54168;DHT22;68429;50.958;3.592;2023-11-18T00:05:40;7.30;99.90
54168;DHT22;68429;50.958;3.592;2023-11-18T00:08:06;7.30;99.90
54168;DHT22;68429;50.958;3.592;2023-11-18T00:10:32;7.30;99.90
54168;DHT22;68429;50.958;3.592;2023-11-18T00:12:57;7.30;99.90
54168;DHT22;68429;50.958;3.592;2023-11-18T00:15:23;7.40;99.90
54168;DHT22;68429;50.958;3.592;2023-11-18T00:17:49;7.30;99.90
54168;DHT22;68429;50.958;3.592;2023-11-18T00:20:14;7.30;99.90
54168;DHT22;68429;50.958;3.592;2023-11-18T00:22:42;7.20;99.90
54168;DHT22;68429;50.958;3.592;2023-11-18T00:25:09;7.10;99.90
54168;DHT22;68429;50.958;3.592;2023-11-18T00:27:34;7.10;99.90
54168;DHT22;68429;50.958;3.592;2023-11-18T00:30:06;7.10;99.90
54168;DHT22;68429;50.958;3.592;2023-11-18T00:32:39;7.00;99.90
54168;DHT22;68429;50.958;3.592;2023-11-18T00:35:05;6.90;99.90
54168;DHT22;68429;50.958;3.592;2023-11-18T00:37:32;7.00;99.90
54168;DHT22;68429;50.958;3.592;2023-11-18T00:39:58;7.20;99.90
54168;DHT22;68429;50.958;3.592;2023-11-18T00:42:24;7.30;99.90
54168;DHT22;68429;50.958;3.592;2023-11-18T00:44:50;7.30;99.90
54168;DHT22;68429;50.958;3.592;2023-11-18T00:47:15;7.30;99.90
54168;DHT22;68429;50.958;3.592;2023-11-18T00:49:41;7.30;99.90
54168;DHT22;68429;50.958;3.592;2023-11-18T00:52:07;7.20;99.90
54168;DHT22;68429;50.958;3.592;2023-11-18T00:54:34;7.10;99.90
54168;DHT22;68429;50.958;3.592;2023-11-18T00:57:01;7.30;99.90
54168;DHT22;68429;50.958;3.592;2023-11-18T00:59:26;7.20;99.90
54168;DHT22;68429;50.958;3.592;2023-11-18T01:01:52;7.20;99.90
54168;DHT22;68429;50.958;3.592;2023-11-18T01:04:18;7.10;99.90
54168;DHT22;68429;50.958;3.592;2023-11-18T01:06:45;7.20;99.90
54168;DHT22;68429;50.958;3.592;2023-11-18T01:09:12;7.20;99.90
54168;DHT22;68429;50.958;3.592;2023-11-18T01:11:38;7.30;99.90
54168;DHT22;68429;50.958;3.592;2023-11-18T01:14:04;7.30;99.90
54168;DHT22;68429;50.958;3.592;2023-11-18T01:16:30;7.50;99.90
54168;DHT22;68429;50.958;3.592;2023-11-18T01:18:55;7.60;99.90
54168;DHT22;68429;50.958;3.592;2023-11-18T01:21:21;7.60;99.90
54168;DHT22;68429;50.958;3.592;2023-11-18T01:23:48;7.60;99.90
54168;DHT22;68429;50.958;3.592;2023-11-18T01:26:14;7.60;99.90
54168;DHT22;68429;50.958;3.592;2023-11-18T01:28:41;7.60;99.90
54168;DHT22;68429;50.958;3.592;2023-11-18T01:31:09;7.80;99.90
54168;DHT22;68429;50.958;3.592;2023-11-18T01:33:39;7.70;99.90
54168;DHT22;68429;50.958;3.592;2023-11-18T01:36:07;7.70;99.90
54168;DHT22;68429;50.958;3.592;2023-11-18T01:38:37;7.70;99.90
54168;DHT22;68429;50.958;3.592;2023-11-18T01:41:07;7.70;99.90
54168;DHT22;68429;50.958;3.592;2023-11-18T01:43:35;7.60;99.90
54168;DHT22;68429;50.958;3.592;2023-11-18T01:46:03;7.90;99.90
54168;DHT22;68429;50.958;3.592;2023-11-18T01:48:33;7.90;99.90
54168;DHT22;68429;50.958;3.592;2023-11-18T01:51:08;7.90;99.90
54168;DHT22;68429;50.958;3.592;2023-11-18T01:53:42;7.90;99.90
54168;DHT22;68429;50.958;3.592;2023-11-18T01:56:09;8.10;99.90
54168;DHT22;68429;50.958;3.592;2023-11-18T01:58:38;8.10;99.90
54168;DHT22;68429;50.958;3.592;2023-11-18T02:01:07;7.90;99.90
54168;DHT22;68429;50.958;3.592;2023-11-18T02:03:36;7.80;99.90
54168;DHT22;68429;50.958;3.592;2023-11-18T02:06:07;7.80;99.90
54168;DHT22;68429;50.958;3.592;2023-11-18T02:08:37;7.80;99.90
54168;DHT22;68429;50.958;3.592;2023-11-18T02:11:22;7.80;99.90
54168;DHT22;68429;50.958;3.592;2023-11-18T02:13:53;7.90;99.90
54168;DHT22;68429;50.958;3.592;2023-11-18T02:16:20;7.80;99.90
54168;DHT22;68429;50.958;3.592;2023-11-18T02:18:53;8.00;99.90
54168;DHT22;68429;50.958;3.592;2023-11-18T02:21:20;8.00;99.90
54168;DHT22;68429;50.958;3.592;2023-11-18T02:23:48;7.90;99.90
54168;DHT22;68429;50.958;3.592;2023-11-18T02:26:24;7.90;99.90
54168;DHT22;68429;50.958;3.592;2023-11-18T02:28:50;8.00;99.90
54168;DHT22;68429;50.958;3.592;2023-11-18T02:31:22;8.10;99.90
54168;DHT22;68429;50.958;3.592;2023-11-18T02:34:30;8.00;99.90
54168;DHT22;68429;50.958;3.592;2023-11-18T02:36:50;8.10;99.90
54168;DHT22;68429;50.958;3.592;2023-11-18T02:39:32;8.00;99.90
54168;DHT22;68429;50.958;3.592;2023-11-18T02:42:01;8.00;99.90
54168;DHT22;68429;50.958;3.592;2023-11-18T02:44:30;8.00;99.90
54168;DHT22;68429;50.958;3.592;2023-11-18T02:46:58;8.10;99.90
54168;DHT22;68429;50.958;3.592;2023-11-18T02:49:24;8.10;99.90
54168;DHT22;68429;50.958;3.592;2023-11-18T02:51:50;8.10;99.90
54168;DHT22;68429;50.958;3.592;2023-11-18T02:54:16;8.20;99.90
54168;DHT22;68429;50.958;3.592;2023-11-18T02:56:42;8.20;99.90
54168;DHT22;68429;50.958;3.592;2023-11-18T02:59:08;8.10;99.90
54168;DHT22;68429;50.958;3.592;2023-11-18T03:01:34;8.20;99.90
54168;DHT22;68429;50.958;3.592;2023-11-18T03:04:02;8.10;99.90
54168;DHT22;68429;50.958;3.592;2023-11-18T03:06:30;8.20;99.90
54168;DHT22;68429;50.958;3.592;2023-11-18T03:08:58;8.10;99.90
54168;DHT22;68429;50.958;3.592;2023-11-18T03:11:24;8.20;99.90
54168;DHT22;68429;50.958;3.592;2023-11-18T03:13:50;8.10;99.90
54168;DHT22;68429;50.958;3.592;2023-11-18T03:16:19;8.10;99.90
54168;DHT22;68429;50.958;3.592;2023-11-18T03:18:46;8.30;99.90
54168;DHT22;68429;50.958;3.592;2023-11-18T03:21:13;8.40;99.90
54168;DHT22;68429;50.958;3.592;2023-11-18T03:23:42;8.50;99.90
54168;DHT22;68429;50.958;3.592;2023-11-18T03:26:09;8.40;99.90
54168;DHT22;68429;50.958;3.592;2023-11-18T03:28:36;8.50;99.90
54168;DHT22;68429;50.958;3.592;2023-11-18T03:31:06;8.50;99.90
54168;DHT22;68429;50.958;3.592;2023-11-18T03:33:32;8.50;99.90
54168;DHT22;68429;50.958;3.592;2023-11-18T03:35:57;8.40;99.90
54168;DHT22;68429;50.958;3.592;2023-11-18T03:38:24;8.50;99.90
54168;DHT22;68429;50.958;3.592;2023-11-18T03:40:50;8.50;99.90
54168;DHT22;68429;50.958;3.592;2023-11-18T03:43:15;8.60;99.90
54168;DHT22;68429;50.958;3.592;2023-11-18T03:45:41;8.60;99.90
54168;DHT22;68429;50.958;3.592;2023-11-18T03:48:07;8.60;99.90
54168;DHT22;68429;50.958;3.592;2023-11-18T03:50:36;8.50;99.90
54168;DHT22;68429;50.958;3.592;2023-11-18T03:53:02;8.50;99.90
54168;DHT22;68429;50.958;3.592;2023-11-18T03:55:29;8.60;99.90
54168;DHT22;68429;50.958;3.592;2023-11-18T03:57:55;8.60;99.90
54168;DHT22;68429;50.958;3.592;2023-11-18T04:00:22;8.60;99.90
54168;DHT22;68429;50.958;3.592;2023-11-18T04:02:48;8.60;99.90
54168;DHT22;68429;50.958;3.592;2023-11-18T04:05:13;8.60;99.90
54168;DHT22;68429;50.958;3.592;2023-11-18T04:07:39;8.60;99.90
54168;DHT22;68429;50.958;3.592;2023-11-18T04:10:08;8.60;99.90
54168;DHT22;68429;50.958;3.592;2023-11-18T04:12:36;8.60;99.90
54168;DHT22;68429;50.958;3.592;2023-11-18T04:15:03;8.60;99.90
54168;DHT22;68429;50.958;3.592;2023-11-18T04:17:30;8.60;99.90
54168;DHT22;68429;50.958;3.592;2023-11-18T04:19:56;8.60;99.90
54168;DHT22;68429;50.958;3.592;2023-11-18T04:22:22;8.60;99.90
54168;DHT22;68429;50.958;3.592;2023-11-18T04:24:48;8.70;99.90
54168;DHT22;68429;50.958;3.592;2023-11-18T04:27:14;8.70;99.90
54168;DHT22;68429;50.958;3.592;2023-11-18T04:29:39;8.70;99.90
54168;DHT22;68429;50.958;3.592;2023-11-18T04:32:07;8.60;99.90
54168;DHT22;68429;50.958;3.592;2023-11-18T04:34:39;8.60;99.90
54168;DHT22;68429;50.958;3.592;2023-11-18T04:37:05;8.70;99.90
54168;DHT22;68429;50.958;3.592;2023-11-18T04:39:34;8.60;99.90
54168;DHT22;68429;50.958;3.592;2023-11-18T04:42:00;8.70;99.90
54168;DHT22;68429;50.958;3.592;2023-11-18T04:44:27;8.70;99.90
54168;DHT22;68429;50.958;3.592;2023-11-18T04:46:52;8.70;99.90
54168;DHT22;68429;50.958;3.592;2023-11-18T04:49:18;8.70;99.90
54168;DHT22;68429;50.958;3.592;2023-11-18T04:51:44;8.80;99.90
54168;DHT22;68429;50.958;3.592;2023-11-18T04:54:11;8.80;99.90
54168;DHT22;68429;50.958;3.592;2023-11-18T04:56:37;8.80;99.90
54168;DHT22;68429;50.958;3.592;2023-11-18T04:59:03;8.80;99.90
54168;DHT22;68429;50.958;3.592;2023-11-18T05:01:32;8.70;99.90
54168;DHT22;68429;50.958;3.592;2023-11-18T05:03:59;8.60;99.90
54168;DHT22;68429;50.958;3.592;2023-11-18T05:06:25;8.70;99.90
54168;DHT22;68429;50.958;3.592;2023-11-18T05:08:51;8.70;99.90
54168;DHT22;68429;50.958;3.592;2023-11-18T05:11:17;8.70;99.90
54168;DHT22;68429;50.958;3.592;2023-11-18T05:13:43;8.90;99.90
54168;DHT22;68429;50.958;3.592;2023-11-18T05:16:08;8.80;99.90
54168;DHT22;68429;50.958;3.592;2023-11-18T05:18:36;8.70;99.90
54168;DHT22;68429;50.958;3.592;2023-11-18T05:21:03;8.70;99.90
54168;DHT22;68429;50.958;3.592;2023-11-18T05:23:34;8.80;99.90
54168;DHT22;68429;50.958;3.592;2023-11-18T05:26:01;8.70;99.90
54168;DHT22;68429;50.958;3.592;2023-11-18T05:28:28;8.70;99.90
54168;DHT22;68429;50.958;3.592;2023-11-18T05:30:55;8.70;99.90
54168;DHT22;68429;50.958;3.592;2023-11-18T05:33:23;8.80;99.90
54168;DHT22;68429;50.958;3.592;2023-11-18T05:35:49;8.80;99.90
54168;DHT22;68429;50.958;3.592;2023-11-18T05:38:18;8.80;99.90
54168;DHT22;68429;50.958;3.592;2023-11-18T05:40:50;8.60;99.90
54168;DHT22;68429;50.958;3.592;2023-11-18T05:43:27;8.50;99.90
54168;DHT22;68429;50.958;3.592;2023-11-18T05:45:55;8.60;99.90
54168;DHT22;68429;50.958;3.592;2023-11-18T05:48:42;8.60;99.90
54168;DHT22;68429;50.958;3.592;2023-11-18T05:51:08;8.70;99.90
54168;DHT22;68429;50.958;3.592;2023-11-18T05:53:39;8.80;99.90
54168;DHT22;68429;50.958;3.592;2023-11-18T05:56:05;8.90;99.90
54168;DHT22;68429;50.958;3.592;2023-11-18T05:58:32;8.90;99.90
54168;DHT22;68429;50.958;3.592;2023-11-18T06:00:58;8.90;99.90
54168;DHT22;68429;50.958;3.592;2023-11-18T06:03:24;9.00;99.90
54168;DHT22;68429;50.958;3.592;2023-11-18T06:05:51;9.00;99.90
54168;DHT22;68429;50.958;3.592;2023-11-18T06:08:17;9.00;99.90
54168;DHT22;68429;50.958;3.592;2023-11-18T06:10:42;9.10;99.90
54168;DHT22;68429;50.958;3.592;2023-11-18T06:13:10;9.10;99.90
54168;DHT22;68429;50.958;3.592;2023-11-18T06:15:38;9.00;99.90
54168;DHT22;68429;50.958;3.592;2023-11-18T06:18:05;9.10;99.90
54168;DHT22;68429;50.958;3.592;2023-11-18T06:20:33;9.10;99.90
54168;DHT22;68429;50.958;3.592;2023-11-18T06:22:58;9.10;99.90
54168;DHT22;68429;50.958;3.592;2023-11-18T06:25:24;9.00;99.90
54168;DHT22;68429;50.958;3.592;2023-11-18T06:27:51;8.90;99.90
54168;DHT22;68429;50.958;3.592;2023-11-18T06:30:18;9.00;99.90
54168;DHT22;68429;50.958;3.592;2023-11-18T06:32:45;9.10;99.90
54168;DHT22;68429;50.958;3.592;2023-11-18T06:35:12;9.20;99.90
54168;DHT22;68429;50.958;3.592;2023-11-18T06:37:40;9.20;99.90
54168;DHT22;68429;50.958;3.592;2023-11-18T06:40:06;9.10;99.90
54168;DHT22;68429;50.958;3.592;2023-11-18T06:42:45;9.10;99.90
54168;DHT22;68429;50.958;3.592;2023-11-18T06:45:14;9.10;99.90
54168;DHT22;68429;50.958;3.592;2023-11-18T06:47:40;8.90;99.90
54168;DHT22;68429;50.958;3.592;2023-11-18T06:50:10;8.90;99.90
54168;DHT22;68429;50.958;3.592;2023-11-18T06:52:40;8.70;99.90
54168;DHT22;68429;50.958;3.592;2023-11-18T06:55:07;8.60;99.90
54168;DHT22;68429;50.958;3.592;2023-11-18T06:57:33;8.60;99.90
54168;DHT22;68429;50.958;3.592;2023-11-18T06:59:59;8.60;99.90
54168;DHT22;68429;50.958;3.592;2023-11-18T07:02:24;8.60;99.90
54168;DHT22;68429;50.958;3.592;2023-11-18T07:04:50;8.50;99.90
54168;DHT22;68429;50.958;3.592;2023-11-18T07:07:16;8.60;99.90
54168;DHT22;68429;50.958;3.592;2023-11-18T07:09:42;8.60;99.90
54168;DHT22;68429;50.958;3.592;2023-11-18T07:12:10;8.60;99.90
54168;DHT22;68429;50.958;3.592;2023-11-18T07:14:35;8.50;99.90
54168;DHT22;68429;50.958;3.592;2023-11-18T07:17:01;8.60;99.90
54168;DHT22;68429;50.958;3.592;2023-11-18T07:19:26;8.60;99.90
54168;DHT22;68429;50.958;3.592;2023-11-18T07:21:54;8.60;99.90
54168;DHT22;68429;50.958;3.592;2023-11-18T07:24:20;8.60;99.90
54168;DHT22;68429;50.958;3.592;2023-11-18T07:26:45;8.60;99.90
54168;DHT22;68429;50.958;3.592;2023-11-18T07:29:11;8.70;99.90
54168;DHT22;68429;50.958;3.592;2023-11-18T07:31:37;8.70;99.90
54168;DHT22;68429;50.958;3.592;2023-11-18T07:34:05;8.80;99.90
54168;DHT22;68429;50.958;3.592;2023-11-18T07:36:32;8.80;99.90
54168;DHT22;68429;50.958;3.592;2023-11-18T07:38:58;8.80;99.90
54168;DHT22;68429;50.958;3.592;2023-11-18T07:41:27;8.90;99.90
54168;DHT22;68429;50.958;3.592;2023-11-18T07:43:53;8.70;99.90
54168;DHT22;68429;50.958;3.592;2023-11-18T07:46:24;8.80;99.90
54168;DHT22;68429;50.958;3.592;2023-11-18T07:48:50;8.70;99.90
54168;DHT22;68429;50.958;3.592;2023-11-18T07:51:17;8.60;99.90
54168;DHT22;68429;50.958;3.592;2023-11-18T07:53:43;8.70;99.90
54168;DHT22;68429;50.958;3.592;2023-11-18T07:56:09;8.70;99.90
54168;DHT22;68429;50.958;3.592;2023-11-18T07:58:37;8.70;99.90
54168;DHT22;68429;50.958;3.592;2023-11-18T08:01:04;8.80;99.90
54168;DHT22;68429;50.958;3.592;2023-11-18T08:03:35;8.80;99.90
54168;DHT22;68429;50.958;3.592;2023-11-18T08:06:03;8.80;99.90
54168;DHT22;68429;50.958;3.592;2023-11-18T08:08:32;8.80;99.90
54168;DHT22;68429;50.958;3.592;2023-11-18T08:10:58;8.80;99.90
54168;DHT22;68429;50.958;3.592;2023-11-18T08:13:23;8.90;99.90
54168;DHT22;68429;50.958;3.592;2023-11-18T08:15:49;9.00;99.90
54168;DHT22;68429;50.958;3.592;2023-11-18T08:18:15;9.10;99.90
54168;DHT22;68429;50.958;3.592;2023-11-18T08:20:41;9.10;99.90
54168;DHT22;68429;50.958;3.592;2023-11-18T08:23:08;9.10;99.90
54168;DHT22;68429;50.958;3.592;2023-11-18T08:25:35;9.10;99.90
54168;DHT22;68429;50.958;3.592;2023-11-18T08:28:06;9.10;99.90
54168;DHT22;68429;50.958;3.592;2023-11-18T08:30:41;9.20;99.90
54168;DHT22;68429;50.958;3.592;2023-11-18T08:33:07;9.10;99.90
54168;DHT22;68429;50.958;3.592;2023-11-18T08:35:36;9.00;99.90
54168;DHT22;68429;50.958;3.592;2023-11-18T08:38:02;9.00;99.90
54168;DHT22;68429;50.958;3.592;2023-11-18T08:40:29;9.00;99.90
54168;DHT22;68429;50.958;3.592;2023-11-18T08:42:55;9.00;99.90
54168;DHT22;68429;50.958;3.592;2023-11-18T08:45:28;9.00;99.90
54168;DHT22;68429;50.958;3.592;2023-11-18T08:47:59;9.00;99.90
54168;DHT22;68429;50.958;3.592;2023-11-18T08:50:27;8.90;99.90
54168;DHT22;68429;50.958;3.592;2023-11-18T08:52:54;8.90;99.90
54168;DHT22;68429;50.958;3.592;2023-11-18T08:55:25;9.00;99.90
54168;DHT22;68429;50.958;3.592;2023-11-18T08:58:05;9.00;99.90
54168;DHT22;68429;50.958;3.592;2023-11-18T09:00:41;9.10;99.90
54168;DHT22;68429;50.958;3.592;2023-11-18T09:03:31;9.00;99.90
54168;DHT22;68429;50.958;3.592;2023-11-18T09:06:03;9.00;99.90
54168;DHT22;68429;50.958;3.592;2023-11-18T09:08:33;9.00;99.90
54168;DHT22;68429;50.958;3.592;2023-11-18T09:11:06;9.00;99.90
54168;DHT22;68429;50.958;3.592;2023-11-18T09:13:34;9.00;99.90
54168;DHT22;68429;50.958;3.592;2023-11-18T09:16:05;9.00;99.90
54168;DHT22;68429;50.958;3.592;2023-11-18T09:18:35;9.00;99.90
54168;DHT22;68429;50.958;3.592;2023-11-18T09:21:02;9.00;99.90
54168;DHT22;68429;50.958;3.592;2023-11-18T09:23:29;9.00;99.90
54168;DHT22;68429;50.958;3.592;2023-11-18T09:25:57;9.10;99.90
54168;DHT22;68429;50.958;3.592;2023-11-18T09:28:24;9.10;99.90
54168;DHT22;68429;50.958;3.592;2023-11-18T09:30:51;9.10;99.90
54168;DHT22;68429;50.958;3.592;2023-11-18T09:33:23;9.00;99.90
54168;DHT22;68429;50.958;3.592;2023-11-18T09:38:30;9.10;99.90
54168;DHT22;68429;50.958;3.592;2023-11-18T09:40:57;9.00;99.90
54168;DHT22;68429;50.958;3.592;2023-11-18T09:43:31;9.10;99.90
54168;DHT22;68429;50.958;3.592;2023-11-18T09:46:16;9.10;99.90
54168;DHT22;68429;50.958;3.592;2023-11-18T09:48:51;9.10;99.90
54168;DHT22;68429;50.958;3.592;2023-11-18T09:51:26;9.10;99.90
54168;DHT22;68429;50.958;3.592;2023-11-18T09:53:59;9.10;99.90
54168;DHT22;68429;50.958;3.592;2023-11-18T09:59:32;9.00;99.90
54168;DHT22;68429;50.958;3.592;2023-11-18T10:02:02;9.10;99.90
54168;DHT22;68429;50.958;3.592;2023-11-18T10:04:30;9.00;99.90
54168;DHT22;68429;50.958;3.592;2023-11-18T10:06:57;9.00;99.90
54168;DHT22;68429;50.958;3.592;2023-11-18T10:09:27;9.00;99.90
54168;DHT22;68429;50.958;3.592;2023-11-18T10:12:12;9.00;99.90
54168;DHT22;68429;50.958;3.592;2023-11-18T10:14:43;9.00;99.90
54168;DHT22;68429;50.958;3.592;2023-11-18T10:17:11;9.00;99.90
54168;DHT22;68429;50.958;3.592;2023-11-18T10:19:58;9.10;99.90
54168;DHT22;68429;50.958;3.592;2023-11-18T10:22:38;9.20;99.90
54168;DHT22;68429;50.958;3.592;2023-11-18T10:25:04;9.10;99.90
54168;DHT22;68429;50.958;3.592;2023-11-18T10:27:31;9.10;99.90
54168;DHT22;68429;50.958;3.592;2023-11-18T10:30:04;9.10;99.90
54168;DHT22;68429;50.958;3.592;2023-11-18T10:32:30;9.20;99.90
54168;DHT22;68429;50.958;3.592;2023-11-18T10:35:01;9.10;99.90
54168;DHT22;68429;50.958;3.592;2023-11-18T10:37:31;9.20;99.90
54168;DHT22;68429;50.958;3.592;2023-11-18T10:39:57;9.20;99.90
54168;DHT22;68429;50.958;3.592;2023-11-18T10:42:26;9.20;99.90
54168;DHT22;68429;50.958;3.592;2023-11-18T10:44:59;9.20;99.90
54168;DHT22;68429;50.958;3.592;2023-11-18T10:47:32;9.20;99.90
54168;DHT22;68429;50.958;3.592;2023-11-18T10:49:58;9.10;99.90
54168;DHT22;68429;50.958;3.592;2023-11-18T10:52:25;9.20;99.90
54168;DHT22;68429;50.958;3.592;2023-11-18T10:55:00;9.20;99.90
54168;DHT22;68429;50.958;3.592;2023-11-18T10:57:33;9.20;99.90
54168;DHT22;68429;50.958;3.592;2023-11-18T11:00:03;9.30;99.90
54168;DHT22;68429;50.958;3.592;2023-11-18T11:02:32;9.30;99.90
54168;DHT22;68429;50.958;3.592;2023-11-18T11:05:03;9.30;99.90
54168;DHT22;68429;50.958;3.592;2023-11-18T11:07:31;9.30;99.90
54168;DHT22;68429;50.958;3.592;2023-11-18T11:09:59;9.30;99.90
54168;DHT22;68429;50.958;3.592;2023-11-18T11:12:25;9.20;99.90
54168;DHT22;68429;50.958;3.592;2023-11-18T11:14:59;9.20;99.90
54168;DHT22;68429;50.958;3.592;2023-11-18T11:17:29;9.20;99.90
54168;DHT22;68429;50.958;3.592;2023-11-18T11:20:00;9.20;99.90
54168;DHT22;68429;50.958;3.592;2023-11-18T11:22:44;9.10;99.90
54168;DHT22;68429;50.958;3.592;2023-11-18T11:25:18;9.10;99.90
54168;DHT22;68429;50.958;3.592;2023-11-18T11:28:01;9.10;99.90
54168;DHT22;68429;50.958;3.592;2023-11-18T11:30:44;9.10;99.90
54168;DHT22;68429;50.958;3.592;2023-11-18T11:33:23;9.20;99.90
54168;DHT22;68429;50.958;3.592;2023-11-18T11:35:56;9.20;99.90
54168;DHT22;68429;50.958;3.592;2023-11-18T11:38:25;9.20;99.90
54168;DHT22;68429;50.958;3.592;2023-11-18T11:40:54;9.30;99.90
54168;DHT22;68429;50.958;3.592;2023-11-18T11:43:20;9.40;99.90
54168;DHT22;68429;50.958;3.592;2023-11-18T11:45:53;9.40;99.90
54168;DHT22;68429;50.958;3.592;2023-11-18T11:48:23;9.50;99.90
54168;DHT22;68429;50.958;3.592;2023-11-18T11:51:26;9.30;99.90
54168;DHT22;68429;50.958;3.592;2023-11-18T11:54:05;9.30;99.90
54168;DHT22;68429;50.958;3.592;2023-11-18T11:56:44;9.30;99.90
54168;DHT22;68429;50.958;3.592;2023-11-18T11:59:15;9.40;99.90
54168;DHT22;68429;50.958;3.592;2023-11-18T12:01:41;9.30;99.90
54168;DHT22;68429;50.958;3.592;2023-11-18T12:04:14;9.40;99.90
54168;DHT22;68429;50.958;3.592;2023-11-18T12:06:47;9.40;99.90
54168;DHT22;68429;50.958;3.592;2023-11-18T12:09:16;9.40;99.90
54168;DHT22;68429;50.958;3.592;2023-11-18T12:11:48;9.40;99.90
54168;DHT22;68429;50.958;3.592;2023-11-18T12:14:17;9.40;99.90
54168;DHT22;68429;50.958;3.592;2023-11-18T12:17:08;9.40;99.90
54168;DHT22;68429;50.958;3.592;2023-11-18T12:19:43;9.50;99.90
54168;DHT22;68429;50.958;3.592;2023-11-18T12:22:17;9.50;99.90
54168;DHT22;68429;50.958;3.592;2023-11-18T12:33:06;9.60;99.90
54168;DHT22;68429;50.958;3.592;2023-11-18T12:36:05;9.70;99.90
54168;DHT22;68429;50.958;3.592;2023-11-18T12:39:02;9.70;99.90
54168;DHT22;68429;50.958;3.592;2023-11-18T12:41:39;9.70;99.90
54168;DHT22;68429;50.958;3.592;2023-11-18T12:46:49;9.70;99.90
54168;DHT22;68429;50.958;3.592;2023-11-18T12:49:16;9.60;99.90
54168;DHT22;68429;50.958;3.592;2023-11-18T12:51:45;9.60;99.90
54168;DHT22;68429;50.958;3.592;2023-11-18T12:54:12;9.60;99.90
54168;DHT22;68429;50.958;3.592;2023-11-18T12:56:40;9.60;99.90
54168;DHT22;68429;50.958;3.592;2023-11-18T12:59:09;9.70;99.90
54168;DHT22;68429;50.958;3.592;2023-11-18T13:01:38;9.70;99.90
54168;DHT22;68429;50.958;3.592;2023-11-18T13:04:07;9.70;99.90
54168;DHT22;68429;50.958;3.592;2023-11-18T13:06:34;9.70;99.90
54168;DHT22;68429;50.958;3.592;2023-11-18T13:09:00;9.60;99.90
54168;DHT22;68429;50.958;3.592;2023-11-18T13:11:31;9.60;99.90
54168;DHT22;68429;50.958;3.592;2023-11-18T13:13:59;9.60;99.90
54168;DHT22;68429;50.958;3.592;2023-11-18T13:16:25;9.70;99.90
54168;DHT22;68429;50.958;3.592;2023-11-18T13:18:51;9.70;99.90
54168;DHT22;68429;50.958;3.592;2023-11-18T13:21:18;9.70;99.90
54168;DHT22;68429;50.958;3.592;2023-11-18T13:23:48;9.80;99.90
54168;DHT22;68429;50.958;3.592;2023-11-18T13:26:16;9.70;99.90
54168;DHT22;68429;50.958;3.592;2023-11-18T13:28:42;9.80;99.90
54168;DHT22;68429;50.958;3.592;2023-11-18T13:31:10;9.90;99.90
54168;DHT22;68429;50.958;3.592;2023-11-18T13:33:39;9.90;99.90
54168;DHT22;68429;50.958;3.592;2023-11-18T13:36:06;9.80;99.90
54168;DHT22;68429;50.958;3.592;2023-11-18T13:38:33;9.80;99.90
54168;DHT22;68429;50.958;3.592;2023-11-18T13:40:58;9.80;99.90
54168;DHT22;68429;50.958;3.592;2023-11-18T13:43:49;9.80;99.90
54168;DHT22;68429;50.958;3.592;2023-11-18T13:46:17;9.90;99.90
54168;DHT22;68429;50.958;3.592;2023-11-18T13:48:47;9.90;99.90
54168;DHT22;68429;50.958;3.592;2023-11-18T13:51:14;9.90;99.90
54168;DHT22;68429;50.958;3.592;2023-11-18T13:53:42;9.90;99.90
54168;DHT22;68429;50.958;3.592;2023-11-18T13:56:15;9.90;99.90
54168;DHT22;68429;50.958;3.592;2023-11-18T13:58:43;10.00;99.90
54168;DHT22;68429;50.958;3.592;2023-11-18T14:01:11;10.00;99.90
54168;DHT22;68429;50.958;3.592;2023-11-18T14:03:40;10.00;99.90
54168;DHT22;68429;50.958;3.592;2023-11-18T14:06:09;10.00;99.90
54168;DHT22;68429;50.958;3.592;2023-11-18T14:08:41;10.10;99.90
54168;DHT22;68429;50.958;3.592;2023-11-18T14:11:07;10.10;99.90
54168;DHT22;68429;50.958;3.592;2023-11-18T14:13:35;10.10;99.90
54168;DHT22;68429;50.958;3.592;2023-11-18T14:16:04;10.20;99.90
54168;DHT22;68429;50.958;3.592;2023-11-18T14:18:34;10.20;99.90
54168;DHT22;68429;50.958;3.592;2023-11-18T14:21:01;10.10;99.90
54168;DHT22;68429;50.958;3.592;2023-11-18T14:23:27;10.20;99.90
54168;DHT22;68429;50.958;3.592;2023-11-18T14:25:53;10.20;99.90
54168;DHT22;68429;50.958;3.592;2023-11-18T14:28:18;10.20;99.90
54168;DHT22;68429;50.958;3.592;2023-11-18T14:30:45;10.20;99.90
54168;DHT22;68429;50.958;3.592;2023-11-18T14:33:10;10.20;99.90
54168;DHT22;68429;50.958;3.592;2023-11-18T14:35:36;10.30;99.90
54168;DHT22;68429;50.958;3.592;2023-11-18T14:38:03;10.30;99.90
54168;DHT22;68429;50.958;3.592;2023-11-18T14:40:28;10.30;99.90
54168;DHT22;68429;50.958;3.592;2023-11-18T14:42:55;10.30;99.90
54168;DHT22;68429;50.958;3.592;2023-11-18T14:45:21;10.40;99.90
54168;DHT22;68429;50.958;3.592;2023-11-18T14:47:47;10.40;99.90
54168;DHT22;68429;50.958;3.592;2023-11-18T14:50:20;10.40;99.90
54168;DHT22;68429;50.958;3.592;2023-11-18T14:52:47;10.50;99.90
54168;DHT22;68429;50.958;3.592;2023-11-18T14:55:14;10.50;99.90
54168;DHT22;68429;50.958;3.592;2023-11-18T14:57:43;10.50;99.90
54168;DHT22;68429;50.958;3.592;2023-11-18T15:00:12;10.50;99.90
54168;DHT22;68429;50.958;3.592;2023-11-18T15:02:49;10.50;99.90
54168;DHT22;68429;50.958;3.592;2023-11-18T15:05:16;10.60;99.90
54168;DHT22;68429;50.958;3.592;2023-11-18T15:07:54;10.60;99.90
54168;DHT22;68429;50.958;3.592;2023-11-18T15:10:27;10.60;99.90
54168;DHT22;68429;50.958;3.592;2023-11-18T15:12:58;10.70;99.90
54168;DHT22;68429;50.958;3.592;2023-11-18T15:15:29;10.70;99.90
54168;DHT22;68429;50.958;3.592;2023-11-18T15:18:00;10.70;99.90
54168;DHT22;68429;50.958;3.592;2023-11-18T15:20:29;10.80;99.90
54168;DHT22;68429;50.958;3.592;2023-11-18T15:22:55;10.80;99.90
54168;DHT22;68429;50.958;3.592;2023-11-18T15:25:21;10.80;99.90
54168;DHT22;68429;50.958;3.592;2023-11-18T15:27:47;10.80;99.90
54168;DHT22;68429;50.958;3.592;2023-11-18T15:30:13;10.90;99.90
54168;DHT22;68429;50.958;3.592;2023-11-18T15:32:40;11.00;99.90
54168;DHT22;68429;50.958;3.592;2023-11-18T15:35:07;11.00;99.90
54168;DHT22;68429;50.958;3.592;2023-11-18T15:37:37;11.00;99.90
54168;DHT22;68429;50.958;3.592;2023-11-18T15:40:08;11.00;99.90
54168;DHT22;68429;50.958;3.592;2023-11-18T15:45:15;11.10;99.90
54168;DHT22;68429;50.958;3.592;2023-11-18T15:47:42;11.10;99.90
54168;DHT22;68429;50.958;3.592;2023-11-18T15:50:10;11.20;99.90
54168;DHT22;68429;50.958;3.592;2023-11-18T15:52:41;11.20;99.90
54168;DHT22;68429;50.958;3.592;2023-11-18T15:55:07;11.20;99.90
54168;DHT22;68429;50.958;3.592;2023-11-18T15:57:40;11.20;99.90
54168;DHT22;68429;50.958;3.592;2023-11-18T16:00:07;11.20;99.90
54168;DHT22;68429;50.958;3.592;2023-11-18T16:02:40;11.20;99.90
54168;DHT22;68429;50.958;3.592;2023-11-18T16:05:06;11.20;99.90
54168;DHT22;68429;50.958;3.592;2023-11-18T16:07:32;11.30;99.90
54168;DHT22;68429;50.958;3.592;2023-11-18T16:09:58;11.30;99.90
54168;DHT22;68429;50.958;3.592;2023-11-18T16:12:26;11.30;99.90
54168;DHT22;68429;50.958;3.592;2023-11-18T16:14:55;11.40;99.90